Skip to main content.
Our real time weather data is updated when you reload the page  -  This page was updated at 20:32 AM on 23/2/2019
 TIME   TEMPERATURE   WINDSPEED   DIRECTION   HUMIDITY   BAROMETER   RAINFALL 
10:20 13.0°C (55.4°F) 31.5 kmh (19.6 mph) N 62% 1013.9hPa (29.94 inHg) 0.0mm (0.00 in.)
9:20 12.0°C (53.6 °F) 24.1 kmh (15.0 mph) NNE 66% 1014.9hPa (29.97 inHg) 0.0mm (0.00 in.)
8:20 11.0°C (51.8 °F) 22.2 kmh (13.8 mph) N 87% 1014.9hPa (29.97 inHg) 0.0mm (0.00 in.)
7:20 9.0°C (48.2 °F) 9.3 kmh (5.8 mph) NNW 87% 1014.9hPa (29.97 inHg) 0.0mm (0.00 in.)
6:20 9.0°C (48.2 °F) 9.3 kmh (5.8 mph) N 93% 1014.9hPa (29.97 inHg) 0.0mm (0.00 in.)
5:20 10.0°C (50.0 °F) 11.1 kmh (6.9 mph) NNW 87% 1015.9hPa (30.00 inHg) 0.0mm (0.00 in.)
4:20 11.0°C (51.8 °F) 9.3 kmh (5.8 mph) NNW 81% 1015.9hPa (30.00 inHg) 0.0mm (0.00 in.)
3:20 11.0°C (51.8 °F) 9.3 kmh (5.8 mph) WNW 81% 1016.9hPa (30.03 inHg) 0.0mm (0.00 in.)
2:20 11.0°C (51.8 °F) 9.3 kmh (5.8 mph) W 87% 1016.9hPa (30.03 inHg) 0.0mm (0.00 in.)
1:20 11.0°C (51.8 °F) 11.1 kmh (6.9 mph) SW 81% 1017.9hPa (30.06 inHg) 0.0mm (0.00 in.)
12:20 11.0°C (51.8 °F) 13.0 kmh (8.1 mph) N 81% 1017.9hPa (30.06 inHg) 0.0mm (0.00 in.)
11:20 12.0°C (53.6 °F) 14.8 kmh (9.2 mph) N 76% 1017.9hPa (30.06 inHg) 0.0mm (0.00 in.)
10:20 13.0°C (55.4 °F) 22.2 kmh (13.8 mph) NNW 71% 1019.0hPa (30.09 inHg) 0.0mm (0.00 in.)
9:20 13.0°C (55.4 °F) 20.4 kmh (12.7 mph) NW 71% 1019.0hPa (30.09 inHg) 0.0mm (0.00 in.)
8:20 13.0°C (55.4 °F) 20.4 kmh (12.7 mph) NW 71% 1019.0hPa (30.09 inHg) 0.0mm (0.00 in.)
7:20 13.0°C (55.4 °F) 16.7 kmh (10.4 mph) NW 66% 1020.0hPa (30.12 inHg) 0.0mm (0.00 in.)
6:20 13.0°C (55.4 °F) 16.7 kmh (10.4 mph) NW 66% 1020.0hPa (30.12 inHg) 0.0mm (0.00 in.)
5:20 14.0°C (57.2 °F) 25.9 kmh (16.1 mph) NNW 62% 1020.0hPa (30.12 inHg) 0.0mm (0.00 in.)
4:20 15.0°C (59.0 °F) 31.5 kmh (19.6 mph) NW 58% 1020.0hPa (30.12 inHg) 0.0mm (0.00 in.)
3:20 15.0°C (59.0 °F) 24.1 kmh (15.0 mph) NW 62% 1021.0hPa (30.15 inHg) 0.0mm (0.00 in.)
2:20 16.0°C (60.8 °F) 24.1 kmh (15.0 mph) NW 55% 1021.0hPa (30.15 inHg) 0.0mm (0.00 in.)
1:20 15.0°C (59.0 °F) 22.2 kmh (13.8 mph) NNW 58% 1022.0hPa (30.18 inHg) 0.0mm (0.00 in.)
12:20 14.0°C (57.2 °F) 20.4 kmh (12.7 mph) NNW 62% 1023.0hPa (30.21 inHg) 0.0mm (0.00 in.)
11:20 15.0°C (59.0 °F) 18.5 kmh (11.5 mph) NNW 62% 1024.0hPa (30.24 inHg) 0.0mm (0.00 in.)